sensor_id;sensor_type;location;lat;lon;timestamp;pressure;altitude;pressure_sealevel;temperature;humidity
11395;BME280;5753;54.402;10.220;2023-04-09T00:02:25;102912.00;;;15.12;44.57
11395;BME280;5753;54.402;10.220;2023-04-09T00:04:52;102919.44;;;15.29;44.28
11395;BME280;5753;54.402;10.220;2023-04-09T00:07:18;102918.22;;;15.46;43.86
11395;BME280;5753;54.402;10.220;2023-04-09T00:09:44;102920.13;;;15.53;43.68
11395;BME280;5753;54.402;10.220;2023-04-09T00:12:10;102920.34;;;15.59;43.92
11395;BME280;5753;54.402;10.220;2023-04-09T00:14:37;102924.91;;;15.66;43.93
11395;BME280;5753;54.402;10.220;2023-04-09T00:17:03;102917.19;;;15.69;43.69
11395;BME280;5753;54.402;10.220;2023-04-09T00:19:29;102919.72;;;15.66;44.05
11395;BME280;5753;54.402;10.220;2023-04-09T00:21:55;102910.06;;;15.62;43.98
11395;BME280;5753;54.402;10.220;2023-04-09T00:24:21;102917.38;;;15.76;43.63
11395;BME280;5753;54.402;10.220;2023-04-09T00:26:47;102907.84;;;15.76;43.74
11395;BME280;5753;54.402;10.220;2023-04-09T00:29:14;102910.72;;;15.27;44.89
11395;BME280;5753;54.402;10.220;2023-04-09T00:31:40;102911.53;;;15.56;44.48
11395;BME280;5753;54.402;10.220;2023-04-09T00:34:06;102913.50;;;15.61;44.23
11395;BME280;5753;54.402;10.220;2023-04-09T00:36:33;102905.03;;;15.68;44.12
11395;BME280;5753;54.402;10.220;2023-04-09T00:38:59;102909.69;;;15.80;43.71
11395;BME280;5753;54.402;10.220;2023-04-09T00:41:25;102908.88;;;15.83;43.46
11395;BME280;5753;54.402;10.220;2023-04-09T00:43:51;102910.41;;;15.74;43.70
11395;BME280;5753;54.402;10.220;2023-04-09T00:46:18;102905.19;;;15.74;43.36
11395;BME280;5753;54.402;10.220;2023-04-09T00:48:44;102908.03;;;15.84;43.25
11395;BME280;5753;54.402;10.220;2023-04-09T00:51:11;102902.53;;;15.71;43.37
11395;BME280;5753;54.402;10.220;2023-04-09T00:53:37;102900.09;;;15.49;43.79
11395;BME280;5753;54.402;10.220;2023-04-09T00:56:03;102896.75;;;15.53;43.97
11395;BME280;5753;54.402;10.220;2023-04-09T00:58:31;102893.94;;;15.46;44.26
11395;BME280;5753;54.402;10.220;2023-04-09T01:00:57;102888.19;;;15.57;44.11
11395;BME280;5753;54.402;10.220;2023-04-09T01:03:23;102891.81;;;15.61;44.17
11395;BME280;5753;54.402;10.220;2023-04-09T01:06:01;102890.28;;;15.67;44.15
11395;BME280;5753;54.402;10.220;2023-04-09T01:11:44;102880.75;;;16.01;43.73
11395;BME280;5753;54.402;10.220;2023-04-09T01:16:45;102890.16;;;15.96;43.75
11395;BME280;5753;54.402;10.220;2023-04-09T01:22:47;102886.88;;;16.03;44.03
11395;BME280;5753;54.402;10.220;2023-04-09T01:28:24;102889.94;;;16.20;43.43
11395;BME280;5753;54.402;10.220;2023-04-09T01:31:08;102884.16;;;16.31;43.52
11395;BME280;5753;54.402;10.220;2023-04-09T01:33:37;102884.00;;;16.25;43.33
11395;BME280;5753;54.402;10.220;2023-04-09T01:36:05;102883.66;;;16.46;42.97
11395;BME280;5753;54.402;10.220;2023-04-09T01:38:34;102883.44;;;16.04;43.64
11395;BME280;5753;54.402;10.220;2023-04-09T01:41:05;102883.53;;;15.74;44.22
11395;BME280;5753;54.402;10.220;2023-04-09T01:43:33;102874.75;;;16.03;43.78
11395;BME280;5753;54.402;10.220;2023-04-09T01:46:00;102880.19;;;16.11;43.45
11395;BME280;5753;54.402;10.220;2023-04-09T01:48:29;102880.28;;;15.83;43.96
11395;BME280;5753;54.402;10.220;2023-04-09T01:50:57;102881.91;;;16.11;43.58
11395;BME280;5753;54.402;10.220;2023-04-09T01:53:24;102880.00;;;16.05;43.64
11395;BME280;5753;54.402;10.220;2023-04-09T01:55:53;102876.84;;;15.84;44.16
11395;BME280;5753;54.402;10.220;2023-04-09T01:58:21;102876.16;;;15.91;44.34
11395;BME280;5753;54.402;10.220;2023-04-09T02:00:48;102878.31;;;15.74;44.56
11395;BME280;5753;54.402;10.220;2023-04-09T02:05:56;102882.28;;;16.26;44.25
11395;BME280;5753;54.402;10.220;2023-04-09T02:08:24;102878.22;;;16.37;43.76
11395;BME280;5753;54.402;10.220;2023-04-09T02:10:55;102879.31;;;16.11;44.44
11395;BME280;5753;54.402;10.220;2023-04-09T02:13:23;102878.72;;;16.22;44.13
11395;BME280;5753;54.402;10.220;2023-04-09T02:15:52;102870.44;;;16.38;44.13
11395;BME280;5753;54.402;10.220;2023-04-09T02:18:26;102865.84;;;16.63;43.16
11395;BME280;5753;54.402;10.220;2023-04-09T02:20:54;102869.22;;;16.59;43.37
11395;BME280;5753;54.402;10.220;2023-04-09T02:23:21;102860.94;;;16.75;43.47
11395;BME280;5753;54.402;10.220;2023-04-09T02:25:48;102867.47;;;16.58;43.20
11395;BME280;5753;54.402;10.220;2023-04-09T02:28:14;102861.47;;;16.62;43.02
11395;BME280;5753;54.402;10.220;2023-04-09T02:30:41;102859.94;;;16.68;43.54
11395;BME280;5753;54.402;10.220;2023-04-09T02:33:07;102843.19;;;16.59;43.26
11395;BME280;5753;54.402;10.220;2023-04-09T02:35:33;102845.53;;;16.84;43.44
11395;BME280;5753;54.402;10.220;2023-04-09T02:38:00;102852.28;;;16.76;43.08
11395;BME280;5753;54.402;10.220;2023-04-09T02:40:26;102842.97;;;16.51;43.27
11395;BME280;5753;54.402;10.220;2023-04-09T02:42:53;102845.50;;;16.48;43.41
11395;BME280;5753;54.402;10.220;2023-04-09T02:45:19;102844.50;;;16.42;43.54
11395;BME280;5753;54.402;10.220;2023-04-09T02:47:45;102833.66;;;16.59;43.30
11395;BME280;5753;54.402;10.220;2023-04-09T02:50:11;102841.53;;;16.62;43.21
11395;BME280;5753;54.402;10.220;2023-04-09T02:52:37;102847.91;;;16.74;43.09
11395;BME280;5753;54.402;10.220;2023-04-09T02:55:04;102834.81;;;16.71;43.15
11395;BME280;5753;54.402;10.220;2023-04-09T02:57:30;102834.00;;;16.38;43.51
11395;BME280;5753;54.402;10.220;2023-04-09T02:59:58;102832.53;;;16.50;43.34
11395;BME280;5753;54.402;10.220;2023-04-09T03:02:24;102832.31;;;16.41;43.50
11395;BME280;5753;54.402;10.220;2023-04-09T03:04:50;102831.88;;;16.22;43.99
11395;BME280;5753;54.402;10.220;2023-04-09T03:07:18;102821.84;;;16.37;44.06
11395;BME280;5753;54.402;10.220;2023-04-09T03:09:44;102833.88;;;16.32;43.93
11395;BME280;5753;54.402;10.220;2023-04-09T03:12:10;102830.41;;;15.99;44.55
11395;BME280;5753;54.402;10.220;2023-04-09T03:14:36;102826.00;;;15.32;46.36
11395;BME280;5753;54.402;10.220;2023-04-09T03:17:02;102825.91;;;16.26;44.76
11395;BME280;5753;54.402;10.220;2023-04-09T03:19:30;102823.16;;;16.56;44.00
11395;BME280;5753;54.402;10.220;2023-04-09T03:21:56;102824.69;;;16.48;43.82
11395;BME280;5753;54.402;10.220;2023-04-09T03:24:22;102824.56;;;16.42;44.36
11395;BME280;5753;54.402;10.220;2023-04-09T03:26:48;102827.50;;;15.87;45.38
11395;BME280;5753;54.402;10.220;2023-04-09T03:29:14;102825.22;;;16.33;44.42
11395;BME280;5753;54.402;10.220;2023-04-09T03:31:41;102826.03;;;16.67;44.02
11395;BME280;5753;54.402;10.220;2023-04-09T03:34:07;102825.56;;;16.85;43.78
11395;BME280;5753;54.402;10.220;2023-04-09T03:36:33;102822.94;;;16.83;43.63
11395;BME280;5753;54.402;10.220;2023-04-09T03:38:59;102823.13;;;16.92;43.42
11395;BME280;5753;54.402;10.220;2023-04-09T03:41:26;102812.50;;;16.83;43.60
11395;BME280;5753;54.402;10.220;2023-04-09T03:43:52;102822.72;;;16.74;43.39
11395;BME280;5753;54.402;10.220;2023-04-09T03:46:19;102824.34;;;17.08;43.72
11395;BME280;5753;54.402;10.220;2023-04-09T03:48:45;102820.50;;;16.92;43.06
11395;BME280;5753;54.402;10.220;2023-04-09T03:51:12;102827.94;;;17.15;43.59
11395;BME280;5753;54.402;10.220;2023-04-09T03:53:39;102828.41;;;16.95;43.30
11395;BME280;5753;54.402;10.220;2023-04-09T03:56:06;102826.84;;;17.04;43.35
11395;BME280;5753;54.402;10.220;2023-04-09T03:58:33;102823.31;;;17.02;43.48
11395;BME280;5753;54.402;10.220;2023-04-09T04:00:59;102826.00;;;17.05;43.12
11395;BME280;5753;54.402;10.220;2023-04-09T04:03:26;102816.75;;;17.19;43.09
11395;BME280;5753;54.402;10.220;2023-04-09T04:05:52;102822.59;;;16.68;44.10
11395;BME280;5753;54.402;10.220;2023-04-09T04:08:18;102832.19;;;17.10;43.19
11395;BME280;5753;54.402;10.220;2023-04-09T04:10:44;102821.59;;;17.02;43.73
11395;BME280;5753;54.402;10.220;2023-04-09T04:13:10;102830.34;;;17.04;43.29
11395;BME280;5753;54.402;10.220;2023-04-09T04:15:40;102824.34;;;16.69;43.98
11395;BME280;5753;54.402;10.220;2023-04-09T04:18:10;102838.13;;;16.65;44.18
11395;BME280;5753;54.402;10.220;2023-04-09T04:20:37;102830.75;;;16.47;44.73
11395;BME280;5753;54.402;10.220;2023-04-09T04:23:04;102839.41;;;16.10;45.46
11395;BME280;5753;54.402;10.220;2023-04-09T04:25:30;102835.69;;;16.36;44.95
11395;BME280;5753;54.402;10.220;2023-04-09T04:27:56;102840.84;;;16.70;43.96
11395;BME280;5753;54.402;10.220;2023-04-09T04:30:23;102836.78;;;16.82;44.02
11395;BME280;5753;54.402;10.220;2023-04-09T04:32:49;102843.81;;;16.86;44.15
11395;BME280;5753;54.402;10.220;2023-04-09T04:35:15;102843.03;;;17.31;43.21
11395;BME280;5753;54.402;10.220;2023-04-09T04:37:42;102838.34;;;17.13;43.29
11395;BME280;5753;54.402;10.220;2023-04-09T04:40:08;102835.78;;;16.76;44.03
11395;BME280;5753;54.402;10.220;2023-04-09T04:42:34;102834.41;;;16.93;43.75
11395;BME280;5753;54.402;10.220;2023-04-09T04:45:01;102837.16;;;17.41;43.12
11395;BME280;5753;54.402;10.220;2023-04-09T04:47:27;102853.03;;;17.52;43.08
11395;BME280;5753;54.402;10.220;2023-04-09T04:49:53;102843.94;;;17.33;43.01
11395;BME280;5753;54.402;10.220;2023-04-09T04:52:19;102844.94;;;16.97;43.81
11395;BME280;5753;54.402;10.220;2023-04-09T04:54:46;102845.63;;;16.89;44.06
11395;BME280;5753;54.402;10.220;2023-04-09T04:57:12;102837.31;;;17.05;43.75
11395;BME280;5753;54.402;10.220;2023-04-09T04:59:41;102835.69;;;16.71;44.43
11395;BME280;5753;54.402;10.220;2023-04-09T05:02:07;102828.75;;;17.11;43.48
11395;BME280;5753;54.402;10.220;2023-04-09T05:04:33;102831.59;;;16.82;44.32
11395;BME280;5753;54.402;10.220;2023-04-09T05:07:00;102829.09;;;16.15;45.46
11395;BME280;5753;54.402;10.220;2023-04-09T05:09:26;102839.84;;;16.64;44.61
11395;BME280;5753;54.402;10.220;2023-04-09T05:11:52;102841.31;;;16.55;44.71
11395;BME280;5753;54.402;10.220;2023-04-09T05:14:18;102843.50;;;16.02;45.88
11395;BME280;5753;54.402;10.220;2023-04-09T05:16:46;102844.63;;;15.79;46.71
11395;BME280;5753;54.402;10.220;2023-04-09T05:19:12;102842.56;;;16.67;44.48
11395;BME280;5753;54.402;10.220;2023-04-09T05:21:38;102837.34;;;17.07;43.70
11395;BME280;5753;54.402;10.220;2023-04-09T05:24:05;102844.56;;;16.45;45.14
11395;BME280;5753;54.402;10.220;2023-04-09T05:26:31;102847.09;;;16.42;45.11
11395;BME280;5753;54.402;10.220;2023-04-09T05:28:58;102835.09;;;16.48;44.86
11395;BME280;5753;54.402;10.220;2023-04-09T05:31:24;102835.88;;;16.80;44.41
11395;BME280;5753;54.402;10.220;2023-04-09T05:33:51;102843.09;;;17.34;43.27
11395;BME280;5753;54.402;10.220;2023-04-09T05:36:18;102848.25;;;17.31;43.49
11395;BME280;5753;54.402;10.220;2023-04-09T05:38:48;102843.38;;;17.04;43.66
11395;BME280;5753;54.402;10.220;2023-04-09T05:41:14;102847.78;;;17.08;43.55
11395;BME280;5753;54.402;10.220;2023-04-09T05:43:40;102860.03;;;16.38;44.95
11395;BME280;5753;54.402;10.220;2023-04-09T05:46:07;102857.28;;;16.67;44.68
11395;BME280;5753;54.402;10.220;2023-04-09T05:48:36;102861.00;;;16.78;44.58
11395;BME280;5753;54.402;10.220;2023-04-09T05:51:03;102856.03;;;17.72;43.02
11395;BME280;5753;54.402;10.220;2023-04-09T05:53:29;102854.88;;;17.15;43.81
11395;BME280;5753;54.402;10.220;2023-04-09T05:55:56;102856.03;;;17.72;42.94
11395;BME280;5753;54.402;10.220;2023-04-09T05:58:22;102863.34;;;17.47;43.28
11395;BME280;5753;54.402;10.220;2023-04-09T06:00:48;102856.28;;;17.42;43.71
11395;BME280;5753;54.402;10.220;2023-04-09T06:03:16;102860.94;;;16.41;45.56
11395;BME280;5753;54.402;10.220;2023-04-09T06:05:44;102860.22;;;17.63;43.38
11395;BME280;5753;54.402;10.220;2023-04-09T06:08:11;102858.72;;;17.75;43.33
11395;BME280;5753;54.402;10.220;2023-04-09T06:10:39;102863.78;;;18.15;42.56
11395;BME280;5753;54.402;10.220;2023-04-09T06:13:05;102856.50;;;18.47;42.36
11395;BME280;5753;54.402;10.220;2023-04-09T06:15:31;102864.97;;;17.41;43.68
11395;BME280;5753;54.402;10.220;2023-04-09T06:17:57;102871.09;;;18.36;42.39
11395;BME280;5753;54.402;10.220;2023-04-09T06:20:23;102862.34;;;18.90;41.90
11395;BME280;5753;54.402;10.220;2023-04-09T06:22:49;102865.69;;;18.25;42.30
11395;BME280;5753;54.402;10.220;2023-04-09T06:25:16;102861.19;;;18.68;41.70
11395;BME280;5753;54.402;10.220;2023-04-09T06:27:42;102879.66;;;17.37;43.63
11395;BME280;5753;54.402;10.220;2023-04-09T06:30:08;102867.56;;;18.33;42.03
11395;BME280;5753;54.402;10.220;2023-04-09T06:32:35;102871.16;;;18.41;42.36
11395;BME280;5753;54.402;10.220;2023-04-09T06:35:01;102865.78;;;17.38;43.81
11395;BME280;5753;54.402;10.220;2023-04-09T06:37:28;102865.75;;;17.37;43.97
11395;BME280;5753;54.402;10.220;2023-04-09T06:39:54;102871.19;;;17.05;44.75
11395;BME280;5753;54.402;10.220;2023-04-09T06:42:20;102879.09;;;17.97;42.89
11395;BME280;5753;54.402;10.220;2023-04-09T06:44:46;102873.13;;;17.57;43.79
11395;BME280;5753;54.402;10.220;2023-04-09T06:47:12;102873.88;;;17.97;42.61
11395;BME280;5753;54.402;10.220;2023-04-09T06:49:38;102879.09;;;17.50;43.22
11395;BME280;5753;54.402;10.220;2023-04-09T06:52:08;102866.81;;;16.66;45.88
11395;BME280;5753;54.402;10.220;2023-04-09T06:54:34;102871.53;;;18.62;41.59
11395;BME280;5753;54.402;10.220;2023-04-09T06:57:00;102872.53;;;18.17;42.04
11395;BME280;5753;54.402;10.220;2023-04-09T06:59:26;102877.13;;;18.86;40.90
11395;BME280;5753;54.402;10.220;2023-04-09T07:01:53;102875.41;;;18.88;41.01
11395;BME280;5753;54.402;10.220;2023-04-09T07:04:19;102883.41;;;17.93;41.39
11395;BME280;5753;54.402;10.220;2023-04-09T07:06:45;102893.16;;;18.55;40.94
11395;BME280;5753;54.402;10.220;2023-04-09T07:09:12;102891.66;;;19.31;40.27
11395;BME280;5753;54.402;10.220;2023-04-09T07:11:38;102881.69;;;19.00;39.70
11395;BME280;5753;54.402;10.220;2023-04-09T07:14:04;102887.28;;;17.69;41.71
11395;BME280;5753;54.402;10.220;2023-04-09T07:16:30;102872.94;;;17.48;41.99
11395;BME280;5753;54.402;10.220;2023-04-09T07:18:56;102871.38;;;17.56;41.58
11395;BME280;5753;54.402;10.220;2023-04-09T07:21:22;102873.13;;;18.54;40.71
11395;BME280;5753;54.402;10.220;2023-04-09T07:23:48;102870.31;;;18.98;40.60
11395;BME280;5753;54.402;10.220;2023-04-09T07:26:15;102881.72;;;18.47;40.37
11395;BME280;5753;54.402;10.220;2023-04-09T07:28:41;102876.19;;;19.46;38.70
11395;BME280;5753;54.402;10.220;2023-04-09T07:31:08;102880.09;;;19.85;38.31
11395;BME280;5753;54.402;10.220;2023-04-09T07:33:34;102884.28;;;19.68;38.48
11395;BME280;5753;54.402;10.220;2023-04-09T07:36:00;102877.56;;;19.90;38.41
11395;BME280;5753;54.402;10.220;2023-04-09T07:38:28;102883.66;;;19.90;38.44
11395;BME280;5753;54.402;10.220;2023-04-09T07:40:54;102884.81;;;18.77;39.62
11395;BME280;5753;54.402;10.220;2023-04-09T07:43:20;102883.53;;;19.08;38.90
11395;BME280;5753;54.402;10.220;2023-04-09T07:45:50;102884.22;;;19.60;37.47
11395;BME280;5753;54.402;10.220;2023-04-09T07:48:16;102884.03;;;19.46;38.40
11395;BME280;5753;54.402;10.220;2023-04-09T07:50:43;102885.91;;;18.92;38.84
11395;BME280;5753;54.402;10.220;2023-04-09T07:53:11;102889.28;;;19.49;37.39
11395;BME280;5753;54.402;10.220;2023-04-09T07:55:38;102894.34;;;20.11;36.76
11395;BME280;5753;54.402;10.220;2023-04-09T07:58:04;102887.69;;;20.47;36.47
11395;BME280;5753;54.402;10.220;2023-04-09T08:00:31;102896.03;;;20.06;36.78
11395;BME280;5753;54.402;10.220;2023-04-09T08:02:57;102890.81;;;20.06;36.91
11395;BME280;5753;54.402;10.220;2023-04-09T08:05:24;102885.00;;;18.90;37.89
11395;BME280;5753;54.402;10.220;2023-04-09T08:07:50;102879.84;;;19.61;37.39
11395;BME280;5753;54.402;10.220;2023-04-09T08:10:18;102883.38;;;20.52;35.90
11395;BME280;5753;54.402;10.220;2023-04-09T08:12:44;102888.53;;;19.57;36.92
11395;BME280;5753;54.402;10.220;2023-04-09T08:15:12;102898.22;;;18.99;37.84
11395;BME280;5753;54.402;10.220;2023-04-09T08:17:38;102887.34;;;20.12;36.01
11395;BME280;5753;54.402;10.220;2023-04-09T08:20:05;102893.78;;;18.93;38.32
11395;BME280;5753;54.402;10.220;2023-04-09T08:22:32;102889.59;;;20.69;36.31
11395;BME280;5753;54.402;10.220;2023-04-09T08:24:59;102885.97;;;20.52;35.94
11395;BME280;5753;54.402;10.220;2023-04-09T08:27:25;102879.50;;;20.12;35.27
11395;BME280;5753;54.402;10.220;2023-04-09T08:29:52;102890.38;;;20.55;35.24
11395;BME280;5753;54.402;10.220;2023-04-09T08:32:18;102889.13;;;19.37;36.84
11395;BME280;5753;54.402;10.220;2023-04-09T08:34:44;102895.09;;;19.98;36.37
11395;BME280;5753;54.402;10.220;2023-04-09T08:37:10;102896.81;;;19.25;36.85
11395;BME280;5753;54.402;10.220;2023-04-09T08:39:36;102896.41;;;20.43;35.29
11395;BME280;5753;54.402;10.220;2023-04-09T08:42:06;102891.19;;;20.46;35.62
11395;BME280;5753;54.402;10.220;2023-04-09T08:44:33;102898.56;;;19.26;36.50
11395;BME280;5753;54.402;10.220;2023-04-09T08:46:59;102896.94;;;20.11;35.29
11395;BME280;5753;54.402;10.220;2023-04-09T08:49:26;102886.19;;;20.81;34.07
11395;BME280;5753;54.402;10.220;2023-04-09T08:51:52;102878.69;;;20.21;35.68
11395;BME280;5753;54.402;10.220;2023-04-09T08:54:18;102886.56;;;21.56;33.97
11395;BME280;5753;54.402;10.220;2023-04-09T08:56:45;102887.25;;;21.18;33.60
11395;BME280;5753;54.402;10.220;2023-04-09T08:59:15;102881.72;;;19.74;36.35
11395;BME280;5753;54.402;10.220;2023-04-09T09:01:44;102886.41;;;19.28;36.71
11395;BME280;5753;54.402;10.220;2023-04-09T09:04:12;102876.91;;;20.17;35.45
11395;BME280;5753;54.402;10.220;2023-04-09T09:06:40;102881.84;;;20.86;35.69
11395;BME280;5753;54.402;10.220;2023-04-09T09:11:47;102883.41;;;19.66;38.25
11395;BME280;5753;54.402;10.220;2023-04-09T09:14:19;102881.47;;;19.51;38.38
11395;BME280;5753;54.402;10.220;2023-04-09T09:17:05;102881.28;;;18.72;39.56
11395;BME280;5753;54.402;10.220;2023-04-09T09:19:33;102880.16;;;18.58;40.12
11395;BME280;5753;54.402;10.220;2023-04-09T09:22:05;102873.44;;;18.72;39.55
11395;BME280;5753;54.402;10.220;2023-04-09T09:24:33;102879.25;;;19.15;38.72
11395;BME280;5753;54.402;10.220;2023-04-09T09:27:00;102871.63;;;17.69;41.02
11395;BME280;5753;54.402;10.220;2023-04-09T09:29:27;102868.84;;;18.59;40.30
11395;BME280;5753;54.402;10.220;2023-04-09T09:31:54;102876.59;;;19.10;39.62
11395;BME280;5753;54.402;10.220;2023-04-09T09:34:23;102874.03;;;18.03;41.38
11395;BME280;5753;54.402;10.220;2023-04-09T09:36:50;102868.91;;;17.64;41.09
11395;BME280;5753;54.402;10.220;2023-04-09T09:39:16;102878.34;;;17.57;42.36
11395;BME280;5753;54.402;10.220;2023-04-09T09:41:44;102863.88;;;18.73;39.92
11395;BME280;5753;54.402;10.220;2023-04-09T09:44:12;102867.84;;;18.49;40.23
11395;BME280;5753;54.402;10.220;2023-04-09T09:46:55;102869.09;;;18.73;39.58
11395;BME280;5753;54.402;10.220;2023-04-09T09:49:22;102864.59;;;18.11;40.56
11395;BME280;5753;54.402;10.220;2023-04-09T09:51:48;102864.91;;;18.85;40.07
11395;BME280;5753;54.402;10.220;2023-04-09T09:54:18;102870.81;;;19.37;39.98
11395;BME280;5753;54.402;10.220;2023-04-09T09:56:48;102862.75;;;19.92;38.21
11395;BME280;5753;54.402;10.220;2023-04-09T09:59:20;102868.00;;;21.15;34.09
11395;BME280;5753;54.402;10.220;2023-04-09T10:02:04;102856.78;;;20.09;37.44
11395;BME280;5753;54.402;10.220;2023-04-09T10:04:35;102858.00;;;20.45;35.70
11395;BME280;5753;54.402;10.220;2023-04-09T10:07:04;102862.19;;;19.41;35.64
11395;BME280;5753;54.402;10.220;2023-04-09T10:09:36;102864.13;;;20.47;34.00
11395;BME280;5753;54.402;10.220;2023-04-09T10:12:04;102860.13;;;21.10;33.15
11395;BME280;5753;54.402;10.220;2023-04-09T10:14:32;102852.50;;;21.97;32.51
11395;BME280;5753;54.402;10.220;2023-04-09T10:16:59;102859.56;;;22.27;31.00
11395;BME280;5753;54.402;10.220;2023-04-09T10:19:25;102854.28;;;22.51;30.78
11395;BME280;5753;54.402;10.220;2023-04-09T10:22:12;102856.84;;;21.75;31.78
11395;BME280;5753;54.402;10.220;2023-04-09T10:24:41;102858.25;;;20.82;32.67
11395;BME280;5753;54.402;10.220;2023-04-09T10:27:12;102848.88;;;21.29;31.50
11395;BME280;5753;54.402;10.220;2023-04-09T10:29:46;102854.28;;;20.25;32.60
11395;BME280;5753;54.402;10.220;2023-04-09T10:32:18;102845.09;;;19.74;33.54
11395;BME280;5753;54.402;10.220;2023-04-09T10:34:46;102836.69;;;21.51;31.74
11395;BME280;5753;54.402;10.220;2023-04-09T10:37:23;102847.78;;;20.88;33.00
11395;BME280;5753;54.402;10.220;2023-04-09T10:39:51;102847.50;;;20.45;33.93
11395;BME280;5753;54.402;10.220;2023-04-09T10:42:19;102847.22;;;21.63;31.96
11395;BME280;5753;54.402;10.220;2023-04-09T10:45:12;102845.28;;;21.15;33.40
11395;BME280;5753;54.402;10.220;2023-04-09T10:47:40;102843.44;;;20.96;34.32
11395;BME280;5753;54.402;10.220;2023-04-09T10:52:41;102827.09;;;21.75;33.55
11395;BME280;5753;54.402;10.220;2023-04-09T10:55:07;102825.38;;;21.84;33.46
11395;BME280;5753;54.402;10.220;2023-04-09T10:57:34;102831.16;;;20.81;35.61
11395;BME280;5753;54.402;10.220;2023-04-09T11:00:00;102832.34;;;21.64;34.98
11395;BME280;5753;54.402;10.220;2023-04-09T11:05:18;102825.38;;;21.78;33.81
11395;BME280;5753;54.402;10.220;2023-04-09T11:07:53;102818.34;;;22.53;33.12
11395;BME280;5753;54.402;10.220;2023-04-09T11:10:21;102824.75;;;23.92;31.47
11395;BME280;5753;54.402;10.220;2023-04-09T11:12:48;102820.97;;;21.69;34.38
11395;BME280;5753;54.402;10.220;2023-04-09T11:15:18;102820.94;;;21.54;34.54
11395;BME280;5753;54.402;10.220;2023-04-09T11:17:46;102818.22;;;23.05;33.16
11395;BME280;5753;54.402;10.220;2023-04-09T11:20:15;102815.75;;;22.18;33.83
11395;BME280;5753;54.402;10.220;2023-04-09T11:22:42;102811.56;;;23.92;32.04
11395;BME280;5753;54.402;10.220;2023-04-09T11:25:08;102820.06;;;22.79;33.61
11395;BME280;5753;54.402;10.220;2023-04-09T11:27:38;102816.44;;;21.20;35.48
11395;BME280;5753;54.402;10.220;2023-04-09T11:30:04;102814.88;;;21.83;35.19
11395;BME280;5753;54.402;10.220;2023-04-09T11:32:32;102819.19;;;21.46;34.86
11395;BME280;5753;54.402;10.220;2023-04-09T11:34:59;102812.03;;;23.15;33.18
11395;BME280;5753;54.402;10.220;2023-04-09T11:37:25;102810.50;;;22.46;33.94
11395;BME280;5753;54.402;10.220;2023-04-09T11:39:53;102810.44;;;22.84;33.02
11395;BME280;5753;54.402;10.220;2023-04-09T11:42:20;102816.53;;;22.87;32.43
11395;BME280;5753;54.402;10.220;2023-04-09T11:44:52;102814.69;;;21.20;34.92
11395;BME280;5753;54.402;10.220;2023-04-09T11:47:19;102805.16;;;22.78;32.90
11395;BME280;5753;54.402;10.220;2023-04-09T11:49:46;102809.19;;;23.52;32.97
11395;BME280;5753;54.402;10.220;2023-04-09T11:52:13;102813.09;;;21.74;34.66
11395;BME280;5753;54.402;10.220;2023-04-09T11:54:41;102806.09;;;22.46;34.12
11395;BME280;5753;54.402;10.220;2023-04-09T11:57:08;102800.91;;;22.29;33.84
11395;BME280;5753;54.402;10.220;2023-04-09T11:59:36;102795.63;;;22.10;34.01
11395;BME280;5753;54.402;10.220;2023-04-09T12:02:05;102799.81;;;21.18;35.79
11395;BME280;5753;54.402;10.220;2023-04-09T12:04:32;102804.38;;;21.87;35.13
11395;BME280;5753;54.402;10.220;2023-04-09T12:06:58;102811.38;;;21.91;34.31
11395;BME280;5753;54.402;10.220;2023-04-09T12:09:25;102806.31;;;23.92;31.99
11395;BME280;5753;54.402;10.220;2023-04-09T12:11:51;102807.03;;;22.32;33.42
11395;BME280;5753;54.402;10.220;2023-04-09T12:14:20;102806.88;;;22.94;32.19
11395;BME280;5753;54.402;10.220;2023-04-09T12:16:50;102807.00;;;21.93;33.63
11395;BME280;5753;54.402;10.220;2023-04-09T12:19:17;102819.09;;;21.24;35.25
11395;BME280;5753;54.402;10.220;2023-04-09T12:21:48;102814.44;;;23.53;32.21
11395;BME280;5753;54.402;10.220;2023-04-09T12:24:19;102812.03;;;21.05;35.08
11395;BME280;5753;54.402;10.220;2023-04-09T12:26:47;102787.75;;;22.33;33.33
11395;BME280;5753;54.402;10.220;2023-04-09T12:29:18;102801.38;;;24.52;30.91
11395;BME280;5753;54.402;10.220;2023-04-09T12:31:45;102794.75;;;24.08;30.58
11395;BME280;5753;54.402;10.220;2023-04-09T12:34:12;102797.34;;;25.60;28.96
11395;BME280;5753;54.402;10.220;2023-04-09T12:36:39;102799.22;;;25.52;29.14
11395;BME280;5753;54.402;10.220;2023-04-09T12:39:09;102789.22;;;26.72;27.03
11395;BME280;5753;54.402;10.220;2023-04-09T12:41:35;102797.13;;;26.26;27.92
11395;BME280;5753;54.402;10.220;2023-04-09T12:44:02;102791.72;;;28.30;25.19
11395;BME280;5753;54.402;10.220;2023-04-09T12:46:28;102788.13;;;26.81;26.34
11395;BME280;5753;54.402;10.220;2023-04-09T12:48:54;102782.91;;;26.31;27.64
11395;BME280;5753;54.402;10.220;2023-04-09T12:51:20;102792.50;;;26.83;26.51
11395;BME280;5753;54.402;10.220;2023-04-09T12:53:46;102797.53;;;28.44;25.24
11395;BME280;5753;54.402;10.220;2023-04-09T12:56:13;102792.28;;;27.34;26.04
11395;BME280;5753;54.402;10.220;2023-04-09T12:58:39;102789.47;;;27.79;24.94
11395;BME280;5753;54.402;10.220;2023-04-09T13:01:05;102781.94;;;31.46;22.38
11395;BME280;5753;54.402;10.220;2023-04-09T13:03:32;102784.78;;;31.19;22.03
11395;BME280;5753;54.402;10.220;2023-04-09T13:05:58;102785.84;;;26.64;26.14
11395;BME280;5753;54.402;10.220;2023-04-09T13:08:24;102776.47;;;26.48;26.60
11395;BME280;5753;54.402;10.220;2023-04-09T13:10:50;102785.69;;;25.75;28.07
11395;BME280;5753;54.402;10.220;2023-04-09T13:13:16;102781.72;;;27.33;25.65
11395;BME280;5753;54.402;10.220;2023-04-09T13:15:43;102771.66;;;28.81;24.31